Terminal Aerodrome Forecast
Issued by NWS

Home | Current Version | Previous Version | Graphics & Text | Print | Product List | Glossary On
Versions: 1 2 3 4 5 6 7 8 9 10 11 12 13 14 15 16 17 18 19 20 21
000
FTUS43 KGRB 232320
TAFRHI
TAF
KRHI 232320Z 2400/2424 03006KT P6SM OVC040
     FM240300 04007KT P6SM VCSH OVC035
      TEMPO 2403/2407 5SM -RA BKN018
     FM240700 04006KT 6SM BR VCSH OVC010
      TEMPO 2407/2411 3SM -RA BR OVC007
     FM241500 05007KT P6SM VCSH OVC009
     FM241900 05007KT P6SM OVC018=

USA.gov is the U.S. government's official web portal to all federal, state and local government web resources and services.